sensor_id;sensor_type;location;lat;lon;timestamp;P1;durP1;ratioP1;P2;durP2;ratioP2
19623;SDS011;9959;49.798;9.928;2022-10-19T00:01:11;36.25;;;5.90;;
19623;SDS011;9959;49.798;9.928;2022-10-19T00:03:40;39.78;;;6.20;;
19623;SDS011;9959;49.798;9.928;2022-10-19T00:06:11;57.15;;;6.32;;
19623;SDS011;9959;49.798;9.928;2022-10-19T00:08:42;47.00;;;6.13;;
19623;SDS011;9959;49.798;9.928;2022-10-19T00:11:11;45.25;;;6.30;;
19623;SDS011;9959;49.798;9.928;2022-10-19T00:13:40;123.88;;;8.07;;
19623;SDS011;9959;49.798;9.928;2022-10-19T00:16:08;83.60;;;6.57;;
19623;SDS011;9959;49.798;9.928;2022-10-19T00:18:38;79.55;;;6.25;;
19623;SDS011;9959;49.798;9.928;2022-10-19T00:21:07;55.25;;;7.30;;
19623;SDS011;9959;49.798;9.928;2022-10-19T00:23:36;74.63;;;7.20;;
19623;SDS011;9959;49.798;9.928;2022-10-19T00:26:06;54.25;;;6.97;;
19623;SDS011;9959;49.798;9.928;2022-10-19T00:28:34;65.35;;;7.30;;
19623;SDS011;9959;49.798;9.928;2022-10-19T00:31:02;81.15;;;8.27;;
19623;SDS011;9959;49.798;9.928;2022-10-19T00:33:31;42.83;;;6.20;;
19623;SDS011;9959;49.798;9.928;2022-10-19T00:35:59;68.30;;;8.10;;
19623;SDS011;9959;49.798;9.928;2022-10-19T00:38:27;89.82;;;9.15;;
19623;SDS011;9959;49.798;9.928;2022-10-19T00:40:55;90.50;;;8.30;;
19623;SDS011;9959;49.798;9.928;2022-10-19T00:43:25;69.07;;;8.60;;
19623;SDS011;9959;49.798;9.928;2022-10-19T00:45:56;108.55;;;8.40;;
19623;SDS011;9959;49.798;9.928;2022-10-19T00:48:25;148.50;;;10.05;;
19623;SDS011;9959;49.798;9.928;2022-10-19T00:50:57;113.53;;;8.63;;
19623;SDS011;9959;49.798;9.928;2022-10-19T00:53:26;95.25;;;8.52;;
19623;SDS011;9959;49.798;9.928;2022-10-19T00:55:57;74.68;;;8.00;;
19623;SDS011;9959;49.798;9.928;2022-10-19T00:58:30;24.67;;;7.25;;
19623;SDS011;9959;49.798;9.928;2022-10-19T01:01:00;153.63;;;11.00;;
19623;SDS011;9959;49.798;9.928;2022-10-19T01:03:30;43.70;;;6.65;;
19623;SDS011;9959;49.798;9.928;2022-10-19T01:05:59;112.70;;;7.93;;
19623;SDS011;9959;49.798;9.928;2022-10-19T01:08:28;113.38;;;7.75;;
19623;SDS011;9959;49.798;9.928;2022-10-19T01:10:59;148.15;;;8.13;;
19623;SDS011;9959;49.798;9.928;2022-10-19T01:13:44;52.63;;;6.03;;
19623;SDS011;9959;49.798;9.928;2022-10-19T01:16:19;17.17;;;5.43;;
19623;SDS011;9959;49.798;9.928;2022-10-19T01:18:57;26.75;;;6.00;;
19623;SDS011;9959;49.798;9.928;2022-10-19T01:21:37;33.03;;;6.28;;
19623;SDS011;9959;49.798;9.928;2022-10-19T01:24:30;51.13;;;7.30;;
19623;SDS011;9959;49.798;9.928;2022-10-19T01:30:10;70.80;;;8.82;;
19623;SDS011;9959;49.798;9.928;2022-10-19T01:32:57;54.00;;;8.10;;
19623;SDS011;9959;49.798;9.928;2022-10-19T01:35:38;46.35;;;7.65;;
19623;SDS011;9959;49.798;9.928;2022-10-19T01:38:19;74.43;;;8.48;;
19623;SDS011;9959;49.798;9.928;2022-10-19T01:40:55;64.60;;;8.52;;
19623;SDS011;9959;49.798;9.928;2022-10-19T01:43:31;66.25;;;8.68;;
19623;SDS011;9959;49.798;9.928;2022-10-19T01:46:08;110.05;;;8.70;;
19623;SDS011;9959;49.798;9.928;2022-10-19T01:48:40;130.65;;;10.18;;
19623;SDS011;9959;49.798;9.928;2022-10-19T01:51:15;97.95;;;9.43;;
19623;SDS011;9959;49.798;9.928;2022-10-19T01:53:47;99.80;;;9.45;;
19623;SDS011;9959;49.798;9.928;2022-10-19T01:56:19;101.50;;;9.25;;
19623;SDS011;9959;49.798;9.928;2022-10-19T01:58:50;146.90;;;10.45;;
19623;SDS011;9959;49.798;9.928;2022-10-19T02:01:24;96.03;;;10.13;;
19623;SDS011;9959;49.798;9.928;2022-10-19T02:03:56;64.07;;;8.85;;
19623;SDS011;9959;49.798;9.928;2022-10-19T02:06:25;101.53;;;9.85;;
19623;SDS011;9959;49.798;9.928;2022-10-19T02:08:54;87.05;;;8.40;;
19623;SDS011;9959;49.798;9.928;2022-10-19T02:11:22;115.70;;;10.38;;
19623;SDS011;9959;49.798;9.928;2022-10-19T02:13:51;78.43;;;8.57;;
19623;SDS011;9959;49.798;9.928;2022-10-19T02:16:25;127.00;;;9.57;;
19623;SDS011;9959;49.798;9.928;2022-10-19T02:18:56;45.00;;;7.85;;
19623;SDS011;9959;49.798;9.928;2022-10-19T02:21:26;79.25;;;9.00;;
19623;SDS011;9959;49.798;9.928;2022-10-19T02:23:55;67.25;;;8.25;;
19623;SDS011;9959;49.798;9.928;2022-10-19T02:26:22;56.95;;;8.77;;
19623;SDS011;9959;49.798;9.928;2022-10-19T02:28:52;80.05;;;9.00;;
19623;SDS011;9959;49.798;9.928;2022-10-19T02:31:21;55.75;;;8.00;;
19623;SDS011;9959;49.798;9.928;2022-10-19T02:33:51;69.95;;;7.70;;
19623;SDS011;9959;49.798;9.928;2022-10-19T02:36:19;62.22;;;8.38;;
19623;SDS011;9959;49.798;9.928;2022-10-19T02:38:48;48.67;;;8.48;;
19623;SDS011;9959;49.798;9.928;2022-10-19T02:41:17;56.00;;;8.63;;
19623;SDS011;9959;49.798;9.928;2022-10-19T02:43:52;35.30;;;8.23;;
19623;SDS011;9959;49.798;9.928;2022-10-19T02:46:26;42.28;;;7.72;;
19623;SDS011;9959;49.798;9.928;2022-10-19T02:48:58;44.55;;;7.40;;
19623;SDS011;9959;49.798;9.928;2022-10-19T02:51:31;21.48;;;7.18;;
19623;SDS011;9959;49.798;9.928;2022-10-19T02:54:00;16.10;;;6.88;;
19623;SDS011;9959;49.798;9.928;2022-10-19T02:56:30;16.00;;;7.40;;
19623;SDS011;9959;49.798;9.928;2022-10-19T02:58:59;19.70;;;6.43;;
19623;SDS011;9959;49.798;9.928;2022-10-19T03:01:27;10.25;;;5.32;;
19623;SDS011;9959;49.798;9.928;2022-10-19T03:03:55;10.68;;;5.20;;
19623;SDS011;9959;49.798;9.928;2022-10-19T03:06:24;12.48;;;5.28;;
19623;SDS011;9959;49.798;9.928;2022-10-19T03:08:52;13.55;;;5.60;;
19623;SDS011;9959;49.798;9.928;2022-10-19T03:11:20;17.23;;;4.63;;
19623;SDS011;9959;49.798;9.928;2022-10-19T03:13:48;9.52;;;4.68;;
19623;SDS011;9959;49.798;9.928;2022-10-19T03:16:16;11.38;;;4.65;;
19623;SDS011;9959;49.798;9.928;2022-10-19T03:18:46;9.15;;;4.50;;
19623;SDS011;9959;49.798;9.928;2022-10-19T03:21:14;12.10;;;4.70;;
19623;SDS011;9959;49.798;9.928;2022-10-19T03:23:44;19.58;;;5.88;;
19623;SDS011;9959;49.798;9.928;2022-10-19T03:26:13;15.27;;;5.82;;
19623;SDS011;9959;49.798;9.928;2022-10-19T03:28:42;10.57;;;5.45;;
19623;SDS011;9959;49.798;9.928;2022-10-19T03:31:10;9.10;;;5.00;;
19623;SDS011;9959;49.798;9.928;2022-10-19T03:33:38;14.43;;;5.35;;
19623;SDS011;9959;49.798;9.928;2022-10-19T03:36:15;10.73;;;5.57;;
19623;SDS011;9959;49.798;9.928;2022-10-19T03:38:49;14.27;;;6.05;;
19623;SDS011;9959;49.798;9.928;2022-10-19T03:41:18;27.13;;;7.45;;
19623;SDS011;9959;49.798;9.928;2022-10-19T03:43:47;36.97;;;7.00;;
19623;SDS011;9959;49.798;9.928;2022-10-19T03:46:15;30.42;;;7.28;;
19623;SDS011;9959;49.798;9.928;2022-10-19T03:48:43;21.02;;;7.60;;
19623;SDS011;9959;49.798;9.928;2022-10-19T03:51:12;19.63;;;6.93;;
19623;SDS011;9959;49.798;9.928;2022-10-19T03:53:42;29.70;;;8.15;;
19623;SDS011;9959;49.798;9.928;2022-10-19T03:56:11;36.05;;;9.25;;
19623;SDS011;9959;49.798;9.928;2022-10-19T03:58:41;27.98;;;9.18;;
19623;SDS011;9959;49.798;9.928;2022-10-19T04:01:11;21.20;;;8.63;;
19623;SDS011;9959;49.798;9.928;2022-10-19T04:03:41;27.33;;;10.40;;
19623;SDS011;9959;49.798;9.928;2022-10-19T04:06:09;28.40;;;8.60;;
19623;SDS011;9959;49.798;9.928;2022-10-19T04:08:47;27.38;;;8.38;;
19623;SDS011;9959;49.798;9.928;2022-10-19T04:11:17;20.73;;;8.00;;
19623;SDS011;9959;49.798;9.928;2022-10-19T04:13:47;18.33;;;8.43;;
19623;SDS011;9959;49.798;9.928;2022-10-19T04:16:16;19.58;;;7.75;;
19623;SDS011;9959;49.798;9.928;2022-10-19T04:18:45;15.05;;;7.28;;
19623;SDS011;9959;49.798;9.928;2022-10-19T04:21:18;23.58;;;7.78;;
19623;SDS011;9959;49.798;9.928;2022-10-19T04:23:48;19.77;;;8.23;;
19623;SDS011;9959;49.798;9.928;2022-10-19T04:26:19;19.10;;;7.80;;
19623;SDS011;9959;49.798;9.928;2022-10-19T04:28:47;22.48;;;6.85;;
19623;SDS011;9959;49.798;9.928;2022-10-19T04:31:15;13.70;;;6.03;;
19623;SDS011;9959;49.798;9.928;2022-10-19T04:33:43;17.90;;;6.32;;
19623;SDS011;9959;49.798;9.928;2022-10-19T04:36:16;17.17;;;6.90;;
19623;SDS011;9959;49.798;9.928;2022-10-19T04:38:44;25.75;;;10.15;;
19623;SDS011;9959;49.798;9.928;2022-10-19T04:41:13;23.08;;;8.10;;
19623;SDS011;9959;49.798;9.928;2022-10-19T04:43:44;17.90;;;7.20;;
19623;SDS011;9959;49.798;9.928;2022-10-19T04:46:13;20.23;;;7.43;;
19623;SDS011;9959;49.798;9.928;2022-10-19T04:48:43;20.38;;;7.60;;
19623;SDS011;9959;49.798;9.928;2022-10-19T04:51:12;16.40;;;7.38;;
19623;SDS011;9959;49.798;9.928;2022-10-19T04:53:41;16.67;;;7.88;;
19623;SDS011;9959;49.798;9.928;2022-10-19T04:56:11;22.73;;;6.72;;
19623;SDS011;9959;49.798;9.928;2022-10-19T04:58:41;12.90;;;6.22;;
19623;SDS011;9959;49.798;9.928;2022-10-19T05:01:12;13.20;;;5.55;;
19623;SDS011;9959;49.798;9.928;2022-10-19T05:03:41;12.10;;;6.03;;
19623;SDS011;9959;49.798;9.928;2022-10-19T05:06:10;11.50;;;5.32;;
19623;SDS011;9959;49.798;9.928;2022-10-19T05:08:39;9.25;;;4.82;;
19623;SDS011;9959;49.798;9.928;2022-10-19T05:11:08;15.25;;;5.07;;
19623;SDS011;9959;49.798;9.928;2022-10-19T05:13:37;16.52;;;6.32;;
19623;SDS011;9959;49.798;9.928;2022-10-19T05:16:06;8.38;;;4.80;;
19623;SDS011;9959;49.798;9.928;2022-10-19T05:18:38;10.85;;;5.38;;
19623;SDS011;9959;49.798;9.928;2022-10-19T05:21:06;12.27;;;5.00;;
19623;SDS011;9959;49.798;9.928;2022-10-19T05:23:36;9.15;;;5.07;;
19623;SDS011;9959;49.798;9.928;2022-10-19T05:26:05;12.82;;;5.80;;
19623;SDS011;9959;49.798;9.928;2022-10-19T05:28:34;11.27;;;5.35;;
19623;SDS011;9959;49.798;9.928;2022-10-19T05:31:06;11.43;;;5.63;;
19623;SDS011;9959;49.798;9.928;2022-10-19T05:33:35;18.45;;;7.22;;
19623;SDS011;9959;49.798;9.928;2022-10-19T05:36:12;48.78;;;13.77;;
19623;SDS011;9959;49.798;9.928;2022-10-19T05:38:42;51.47;;;14.75;;
19623;SDS011;9959;49.798;9.928;2022-10-19T05:41:10;54.25;;;18.15;;
19623;SDS011;9959;49.798;9.928;2022-10-19T05:43:39;60.63;;;17.83;;
19623;SDS011;9959;49.798;9.928;2022-10-19T05:46:08;43.75;;;16.00;;
19623;SDS011;9959;49.798;9.928;2022-10-19T05:48:37;53.42;;;17.00;;
19623;SDS011;9959;49.798;9.928;2022-10-19T05:51:06;51.90;;;18.08;;
19623;SDS011;9959;49.798;9.928;2022-10-19T05:53:36;46.80;;;16.88;;
19623;SDS011;9959;49.798;9.928;2022-10-19T05:56:05;53.38;;;17.23;;
19623;SDS011;9959;49.798;9.928;2022-10-19T05:58:35;58.90;;;17.30;;
19623;SDS011;9959;49.798;9.928;2022-10-19T06:01:03;64.15;;;19.85;;
19623;SDS011;9959;49.798;9.928;2022-10-19T06:03:31;61.42;;;18.48;;
19623;SDS011;9959;49.798;9.928;2022-10-19T06:06:00;58.88;;;18.05;;
19623;SDS011;9959;49.798;9.928;2022-10-19T06:08:29;54.40;;;17.92;;
19623;SDS011;9959;49.798;9.928;2022-10-19T06:11:04;53.20;;;17.75;;
19623;SDS011;9959;49.798;9.928;2022-10-19T06:13:33;50.10;;;17.55;;
19623;SDS011;9959;49.798;9.928;2022-10-19T06:16:02;58.13;;;18.42;;
19623;SDS011;9959;49.798;9.928;2022-10-19T06:18:30;54.80;;;19.05;;
19623;SDS011;9959;49.798;9.928;2022-10-19T06:21:00;52.10;;;17.30;;
19623;SDS011;9959;49.798;9.928;2022-10-19T06:23:29;49.92;;;16.27;;
19623;SDS011;9959;49.798;9.928;2022-10-19T06:25:57;48.83;;;16.60;;
19623;SDS011;9959;49.798;9.928;2022-10-19T06:28:27;41.65;;;16.50;;
19623;SDS011;9959;49.798;9.928;2022-10-19T06:30:55;44.17;;;16.58;;
19623;SDS011;9959;49.798;9.928;2022-10-19T06:33:25;49.35;;;17.33;;
19623;SDS011;9959;49.798;9.928;2022-10-19T06:35:53;43.50;;;16.25;;
19623;SDS011;9959;49.798;9.928;2022-10-19T06:38:21;48.30;;;18.00;;
19623;SDS011;9959;49.798;9.928;2022-10-19T06:40:49;55.95;;;17.95;;
19623;SDS011;9959;49.798;9.928;2022-10-19T06:43:17;47.40;;;17.30;;
19623;SDS011;9959;49.798;9.928;2022-10-19T06:45:46;44.13;;;17.17;;
19623;SDS011;9959;49.798;9.928;2022-10-19T06:48:14;45.92;;;15.93;;
19623;SDS011;9959;49.798;9.928;2022-10-19T06:50:42;40.63;;;15.68;;
19623;SDS011;9959;49.798;9.928;2022-10-19T06:53:10;43.28;;;15.35;;
19623;SDS011;9959;49.798;9.928;2022-10-19T06:55:38;43.45;;;14.57;;
19623;SDS011;9959;49.798;9.928;2022-10-19T06:58:05;39.58;;;14.23;;
19623;SDS011;9959;49.798;9.928;2022-10-19T07:00:33;36.30;;;13.60;;
19623;SDS011;9959;49.798;9.928;2022-10-19T07:03:03;36.20;;;13.93;;
19623;SDS011;9959;49.798;9.928;2022-10-19T07:05:30;36.88;;;14.38;;
19623;SDS011;9959;49.798;9.928;2022-10-19T07:07:58;32.00;;;13.95;;
19623;SDS011;9959;49.798;9.928;2022-10-19T07:10:26;44.05;;;13.88;;
19623;SDS011;9959;49.798;9.928;2022-10-19T07:12:54;33.90;;;12.30;;
19623;SDS011;9959;49.798;9.928;2022-10-19T07:15:23;34.50;;;13.70;;
19623;SDS011;9959;49.798;9.928;2022-10-19T07:17:51;30.17;;;12.32;;
19623;SDS011;9959;49.798;9.928;2022-10-19T07:20:20;32.67;;;13.20;;
19623;SDS011;9959;49.798;9.928;2022-10-19T07:22:49;30.38;;;12.25;;
19623;SDS011;9959;49.798;9.928;2022-10-19T07:25:17;27.00;;;11.18;;
19623;SDS011;9959;49.798;9.928;2022-10-19T07:27:45;28.30;;;11.95;;
19623;SDS011;9959;49.798;9.928;2022-10-19T07:30:13;24.52;;;11.38;;
19623;SDS011;9959;49.798;9.928;2022-10-19T07:32:40;26.92;;;11.40;;
19623;SDS011;9959;49.798;9.928;2022-10-19T07:35:12;23.48;;;10.38;;
19623;SDS011;9959;49.798;9.928;2022-10-19T07:37:41;23.65;;;10.88;;
19623;SDS011;9959;49.798;9.928;2022-10-19T07:40:10;23.25;;;10.82;;
19623;SDS011;9959;49.798;9.928;2022-10-19T07:42:39;20.30;;;9.45;;
19623;SDS011;9959;49.798;9.928;2022-10-19T07:45:07;27.05;;;10.68;;
19623;SDS011;9959;49.798;9.928;2022-10-19T07:47:35;24.30;;;10.95;;
19623;SDS011;9959;49.798;9.928;2022-10-19T07:50:03;25.10;;;10.77;;
19623;SDS011;9959;49.798;9.928;2022-10-19T07:52:31;29.15;;;11.90;;
19623;SDS011;9959;49.798;9.928;2022-10-19T07:55:04;27.92;;;13.15;;
19623;SDS011;9959;49.798;9.928;2022-10-19T07:57:32;30.88;;;13.52;;
19623;SDS011;9959;49.798;9.928;2022-10-19T08:00:00;29.95;;;13.65;;
19623;SDS011;9959;49.798;9.928;2022-10-19T08:02:28;31.75;;;14.02;;
19623;SDS011;9959;49.798;9.928;2022-10-19T08:05:16;36.25;;;15.07;;
19623;SDS011;9959;49.798;9.928;2022-10-19T08:07:44;32.40;;;13.52;;
19623;SDS011;9959;49.798;9.928;2022-10-19T08:10:13;33.58;;;13.50;;
19623;SDS011;9959;49.798;9.928;2022-10-19T08:12:41;32.67;;;14.27;;
19623;SDS011;9959;49.798;9.928;2022-10-19T08:15:09;30.52;;;12.98;;
19623;SDS011;9959;49.798;9.928;2022-10-19T08:17:37;31.33;;;13.77;;
19623;SDS011;9959;49.798;9.928;2022-10-19T08:20:06;30.73;;;13.05;;
19623;SDS011;9959;49.798;9.928;2022-10-19T08:22:34;28.92;;;13.00;;
19623;SDS011;9959;49.798;9.928;2022-10-19T08:25:03;35.28;;;13.65;;
19623;SDS011;9959;49.798;9.928;2022-10-19T08:27:32;32.83;;;12.90;;
19623;SDS011;9959;49.798;9.928;2022-10-19T08:30:01;33.50;;;13.45;;
19623;SDS011;9959;49.798;9.928;2022-10-19T08:32:29;35.15;;;14.07;;
19623;SDS011;9959;49.798;9.928;2022-10-19T08:34:58;34.00;;;14.55;;
19623;SDS011;9959;49.798;9.928;2022-10-19T08:37:26;39.70;;;14.38;;
19623;SDS011;9959;49.798;9.928;2022-10-19T08:40:12;36.67;;;14.27;;
19623;SDS011;9959;49.798;9.928;2022-10-19T08:42:49;33.45;;;14.13;;
19623;SDS011;9959;49.798;9.928;2022-10-19T08:45:35;33.60;;;14.50;;
19623;SDS011;9959;49.798;9.928;2022-10-19T08:48:12;39.60;;;14.70;;
19623;SDS011;9959;49.798;9.928;2022-10-19T08:50:50;45.97;;;15.70;;
19623;SDS011;9959;49.798;9.928;2022-10-19T08:53:20;39.15;;;15.35;;
19623;SDS011;9959;49.798;9.928;2022-10-19T08:56:01;40.17;;;15.13;;
19623;SDS011;9959;49.798;9.928;2022-10-19T08:58:48;36.72;;;15.02;;
19623;SDS011;9959;49.798;9.928;2022-10-19T09:01:27;31.40;;;14.52;;
19623;SDS011;9959;49.798;9.928;2022-10-19T09:04:03;32.33;;;14.43;;
19623;SDS011;9959;49.798;9.928;2022-10-19T09:06:39;42.90;;;17.05;;
19623;SDS011;9959;49.798;9.928;2022-10-19T09:09:15;37.92;;;16.02;;
19623;SDS011;9959;49.798;9.928;2022-10-19T09:11:46;39.15;;;16.30;;
19623;SDS011;9959;49.798;9.928;2022-10-19T09:14:18;42.80;;;15.63;;
19623;SDS011;9959;49.798;9.928;2022-10-19T09:16:52;36.78;;;15.45;;
19623;SDS011;9959;49.798;9.928;2022-10-19T09:19:29;40.72;;;16.45;;
19623;SDS011;9959;49.798;9.928;2022-10-19T09:21:58;38.58;;;17.02;;
19623;SDS011;9959;49.798;9.928;2022-10-19T09:24:33;39.30;;;16.25;;
19623;SDS011;9959;49.798;9.928;2022-10-19T09:27:06;43.80;;;16.25;;
19623;SDS011;9959;49.798;9.928;2022-10-19T09:29:44;39.78;;;16.13;;
19623;SDS011;9959;49.798;9.928;2022-10-19T09:32:17;44.33;;;16.30;;
19623;SDS011;9959;49.798;9.928;2022-10-19T09:34:47;38.38;;;16.15;;
19623;SDS011;9959;49.798;9.928;2022-10-19T09:37:17;40.85;;;16.35;;
19623;SDS011;9959;49.798;9.928;2022-10-19T09:39:52;39.53;;;16.00;;
19623;SDS011;9959;49.798;9.928;2022-10-19T09:42:22;43.60;;;17.70;;
19623;SDS011;9959;49.798;9.928;2022-10-19T09:44:56;41.30;;;16.88;;
19623;SDS011;9959;49.798;9.928;2022-10-19T09:47:30;42.88;;;16.48;;
19623;SDS011;9959;49.798;9.928;2022-10-19T09:50:05;40.25;;;15.73;;
19623;SDS011;9959;49.798;9.928;2022-10-19T09:52:44;33.15;;;15.23;;
19623;SDS011;9959;49.798;9.928;2022-10-19T09:55:24;42.63;;;15.40;;
19623;SDS011;9959;49.798;9.928;2022-10-19T09:57:58;47.40;;;16.98;;
19623;SDS011;9959;49.798;9.928;2022-10-19T10:00:32;36.75;;;14.85;;
19623;SDS011;9959;49.798;9.928;2022-10-19T10:03:02;38.50;;;15.25;;
19623;SDS011;9959;49.798;9.928;2022-10-19T10:05:33;42.47;;;16.15;;
19623;SDS011;9959;49.798;9.928;2022-10-19T10:08:03;38.40;;;14.93;;
19623;SDS011;9959;49.798;9.928;2022-10-19T10:10:41;36.83;;;14.82;;
19623;SDS011;9959;49.798;9.928;2022-10-19T10:13:12;38.50;;;14.38;;
19623;SDS011;9959;49.798;9.928;2022-10-19T10:15:46;35.92;;;16.08;;
19623;SDS011;9959;49.798;9.928;2022-10-19T10:18:16;33.67;;;14.60;;
19623;SDS011;9959;49.798;9.928;2022-10-19T10:21:01;45.88;;;15.93;;
19623;SDS011;9959;49.798;9.928;2022-10-19T10:23:33;29.80;;;14.27;;
19623;SDS011;9959;49.798;9.928;2022-10-19T10:26:03;33.88;;;13.50;;
19623;SDS011;9959;49.798;9.928;2022-10-19T10:28:45;26.13;;;11.57;;
19623;SDS011;9959;49.798;9.928;2022-10-19T10:31:16;19.48;;;9.07;;
19623;SDS011;9959;49.798;9.928;2022-10-19T10:33:51;18.73;;;8.45;;
19623;SDS011;9959;49.798;9.928;2022-10-19T10:36:22;14.80;;;7.22;;
19623;SDS011;9959;49.798;9.928;2022-10-19T10:38:56;14.73;;;7.65;;
19623;SDS011;9959;49.798;9.928;2022-10-19T10:41:30;17.20;;;7.38;;
19623;SDS011;9959;49.798;9.928;2022-10-19T10:44:05;12.55;;;6.80;;
19623;SDS011;9959;49.798;9.928;2022-10-19T10:46:39;13.63;;;6.85;;
19623;SDS011;9959;49.798;9.928;2022-10-19T10:49:19;13.43;;;7.28;;
19623;SDS011;9959;49.798;9.928;2022-10-19T10:51:49;13.63;;;7.80;;
19623;SDS011;9959;49.798;9.928;2022-10-19T10:54:22;12.80;;;6.90;;
19623;SDS011;9959;49.798;9.928;2022-10-19T10:57:07;12.82;;;7.40;;
19623;SDS011;9959;49.798;9.928;2022-10-19T10:59:48;17.85;;;8.65;;
19623;SDS011;9959;49.798;9.928;2022-10-19T11:02:33;15.40;;;7.45;;
19623;SDS011;9959;49.798;9.928;2022-10-19T11:05:09;15.60;;;7.30;;
19623;SDS011;9959;49.798;9.928;2022-10-19T11:07:40;14.50;;;7.53;;
19623;SDS011;9959;49.798;9.928;2022-10-19T11:10:14;14.88;;;6.95;;
19623;SDS011;9959;49.798;9.928;2022-10-19T11:12:48;13.68;;;7.53;;
19623;SDS011;9959;49.798;9.928;2022-10-19T11:15:21;13.88;;;7.20;;
19623;SDS011;9959;49.798;9.928;2022-10-19T11:17:55;13.52;;;7.97;;
19623;SDS011;9959;49.798;9.928;2022-10-19T11:20:29;12.77;;;7.00;;
19623;SDS011;9959;49.798;9.928;2022-10-19T11:23:05;14.48;;;6.72;;
19623;SDS011;9959;49.798;9.928;2022-10-19T11:25:43;16.45;;;7.80;;
19623;SDS011;9959;49.798;9.928;2022-10-19T11:28:23;14.63;;;7.03;;
19623;SDS011;9959;49.798;9.928;2022-10-19T11:31:04;12.38;;;7.00;;
19623;SDS011;9959;49.798;9.928;2022-10-19T11:33:42;13.13;;;6.72;;
19623;SDS011;9959;49.798;9.928;2022-10-19T11:36:24;13.38;;;6.68;;
19623;SDS011;9959;49.798;9.928;2022-10-19T11:39:12;13.55;;;7.18;;
19623;SDS011;9959;49.798;9.928;2022-10-19T11:41:55;14.18;;;7.70;;
19623;SDS011;9959;49.798;9.928;2022-10-19T11:44:37;14.32;;;7.40;;
19623;SDS011;9959;49.798;9.928;2022-10-19T11:47:20;18.13;;;7.53;;
19623;SDS011;9959;49.798;9.928;2022-10-19T11:50:08;14.70;;;7.18;;
19623;SDS011;9959;49.798;9.928;2022-10-19T11:52:47;16.55;;;8.43;;
19623;SDS011;9959;49.798;9.928;2022-10-19T11:55:25;17.88;;;7.80;;
19623;SDS011;9959;49.798;9.928;2022-10-19T11:58:03;14.43;;;7.60;;
19623;SDS011;9959;49.798;9.928;2022-10-19T12:00:39;12.93;;;7.68;;
19623;SDS011;9959;49.798;9.928;2022-10-19T12:03:23;17.58;;;8.13;;
19623;SDS011;9959;49.798;9.928;2022-10-19T12:06:10;13.48;;;7.25;;
19623;SDS011;9959;49.798;9.928;2022-10-19T12:08:51;13.60;;;7.55;;
19623;SDS011;9959;49.798;9.928;2022-10-19T12:11:35;13.98;;;7.43;;
19623;SDS011;9959;49.798;9.928;2022-10-19T12:14:14;14.68;;;7.93;;
19623;SDS011;9959;49.798;9.928;2022-10-19T12:16:46;14.82;;;7.30;;
19623;SDS011;9959;49.798;9.928;2022-10-19T12:19:17;15.18;;;8.00;;
19623;SDS011;9959;49.798;9.928;2022-10-19T12:21:48;11.98;;;6.82;;
19623;SDS011;9959;49.798;9.928;2022-10-19T12:24:20;15.60;;;8.50;;
19623;SDS011;9959;49.798;9.928;2022-10-19T12:26:51;15.88;;;8.63;;
19623;SDS011;9959;49.798;9.928;2022-10-19T12:29:21;13.32;;;7.60;;
19623;SDS011;9959;49.798;9.928;2022-10-19T12:31:52;16.38;;;8.75;;
19623;SDS011;9959;49.798;9.928;2022-10-19T12:34:25;16.48;;;7.22;;
19623;SDS011;9959;49.798;9.928;2022-10-19T12:37:04;16.77;;;8.07;;
19623;SDS011;9959;49.798;9.928;2022-10-19T12:39:38;13.80;;;7.75;;
19623;SDS011;9959;49.798;9.928;2022-10-19T12:42:14;14.02;;;8.50;;
19623;SDS011;9959;49.798;9.928;2022-10-19T12:44:55;15.52;;;8.60;;
19623;SDS011;9959;49.798;9.928;2022-10-19T12:47:37;16.27;;;8.23;;
19623;SDS011;9959;49.798;9.928;2022-10-19T12:50:05;13.43;;;8.10;;
19623;SDS011;9959;49.798;9.928;2022-10-19T12:52:36;16.30;;;8.07;;
19623;SDS011;9959;49.798;9.928;2022-10-19T12:55:26;15.38;;;7.93;;
19623;SDS011;9959;49.798;9.928;2022-10-19T12:58:01;14.73;;;8.18;;
19623;SDS011;9959;49.798;9.928;2022-10-19T13:00:32;16.08;;;8.00;;
19623;SDS011;9959;49.798;9.928;2022-10-19T13:03:03;17.25;;;7.85;;
19623;SDS011;9959;49.798;9.928;2022-10-19T13:05:33;18.50;;;8.60;;
19623;SDS011;9959;49.798;9.928;2022-10-19T13:08:04;15.18;;;7.80;;
19623;SDS011;9959;49.798;9.928;2022-10-19T13:10:39;13.52;;;7.95;;
19623;SDS011;9959;49.798;9.928;2022-10-19T13:13:22;22.20;;;8.30;;
19623;SDS011;9959;49.798;9.928;2022-10-19T13:19:27;14.60;;;8.45;;
19623;SDS011;9959;49.798;9.928;2022-10-19T13:27:53;16.17;;;8.75;;
19623;SDS011;9959;49.798;9.928;2022-10-19T13:33:43;16.63;;;9.80;;
19623;SDS011;9959;49.798;9.928;2022-10-19T13:36:15;19.60;;;9.77;;
19623;SDS011;9959;49.798;9.928;2022-10-19T13:38:44;22.05;;;9.88;;
19623;SDS011;9959;49.798;9.928;2022-10-19T13:41:19;17.73;;;9.80;;
19623;SDS011;9959;49.798;9.928;2022-10-19T13:43:59;22.35;;;10.60;;
19623;SDS011;9959;49.798;9.928;2022-10-19T13:46:51;16.25;;;9.20;;
19623;SDS011;9959;49.798;9.928;2022-10-19T13:49:40;23.50;;;9.15;;
19623;SDS011;9959;49.798;9.928;2022-10-19T13:52:30;18.48;;;9.13;;
19623;SDS011;9959;49.798;9.928;2022-10-19T13:55:25;18.17;;;9.40;;
19623;SDS011;9959;49.798;9.928;2022-10-19T14:01:31;24.17;;;9.55;;
19623;SDS011;9959;49.798;9.928;2022-10-19T14:04:16;16.67;;;9.15;;
19623;SDS011;9959;49.798;9.928;2022-10-19T14:06:49;17.33;;;8.93;;
19623;SDS011;9959;49.798;9.928;2022-10-19T14:12:23;15.73;;;9.18;;
19623;SDS011;9959;49.798;9.928;2022-10-19T14:14:55;15.70;;;8.63;;
19623;SDS011;9959;49.798;9.928;2022-10-19T14:17:24;17.80;;;8.80;;
19623;SDS011;9959;49.798;9.928;2022-10-19T14:19:55;14.73;;;8.07;;
19623;SDS011;9959;49.798;9.928;2022-10-19T14:22:25;18.00;;;8.38;;
19623;SDS011;9959;49.798;9.928;2022-10-19T14:24:59;14.88;;;8.40;;
19623;SDS011;9959;49.798;9.928;2022-10-19T14:27:30;17.35;;;8.20;;
19623;SDS011;9959;49.798;9.928;2022-10-19T14:30:00;14.70;;;8.18;;
19623;SDS011;9959;49.798;9.928;2022-10-19T14:32:31;17.58;;;8.23;;
19623;SDS011;9959;49.798;9.928;2022-10-19T14:35:02;14.43;;;8.10;;
19623;SDS011;9959;49.798;9.928;2022-10-19T14:37:32;14.70;;;8.27;;
19623;SDS011;9959;49.798;9.928;2022-10-19T14:40:03;14.80;;;8.02;;
19623;SDS011;9959;49.798;9.928;2022-10-19T14:42:37;15.10;;;8.05;;
19623;SDS011;9959;49.798;9.928;2022-10-19T14:45:16;13.68;;;8.00;;
19623;SDS011;9959;49.798;9.928;2022-10-19T14:47:50;16.65;;;8.43;;
19623;SDS011;9959;49.798;9.928;2022-10-19T14:50:31;17.40;;;8.57;;
19623;SDS011;9959;49.798;9.928;2022-10-19T14:53:12;13.30;;;7.68;;
19623;SDS011;9959;49.798;9.928;2022-10-19T14:55:48;13.60;;;7.85;;
19623;SDS011;9959;49.798;9.928;2022-10-19T14:58:19;13.70;;;8.25;;
19623;SDS011;9959;49.798;9.928;2022-10-19T15:00:51;20.98;;;9.13;;
19623;SDS011;9959;49.798;9.928;2022-10-19T15:03:21;15.82;;;8.35;;
19623;SDS011;9959;49.798;9.928;2022-10-19T15:05:53;14.70;;;8.75;;
19623;SDS011;9959;49.798;9.928;2022-10-19T15:08:29;15.65;;;8.75;;
19623;SDS011;9959;49.798;9.928;2022-10-19T15:11:02;15.68;;;8.48;;
19623;SDS011;9959;49.798;9.928;2022-10-19T15:13:33;15.13;;;9.27;;
19623;SDS011;9959;49.798;9.928;2022-10-19T15:19:01;14.50;;;8.52;;
19623;SDS011;9959;49.798;9.928;2022-10-19T15:21:29;14.32;;;8.05;;
19623;SDS011;9959;49.798;9.928;2022-10-19T15:24:14;19.77;;;8.60;;
19623;SDS011;9959;49.798;9.928;2022-10-19T15:26:52;15.73;;;7.88;;
19623;SDS011;9959;49.798;9.928;2022-10-19T15:29:34;17.08;;;8.00;;
19623;SDS011;9959;49.798;9.928;2022-10-19T15:32:19;13.75;;;7.53;;
19623;SDS011;9959;49.798;9.928;2022-10-19T15:34:49;16.05;;;7.80;;
19623;SDS011;9959;49.798;9.928;2022-10-19T15:37:19;13.88;;;6.95;;
19623;SDS011;9959;49.798;9.928;2022-10-19T15:39:49;13.00;;;7.47;;